sensor_id;sensor_type;location;lat;lon;timestamp;P1;durP1;ratioP1;P2;durP2;ratioP2
63398;SDS011;49533;-34.520;150.798;2023-02-28T00:00:18;3.13;;;1.25;;
63398;SDS011;49533;-34.520;150.798;2023-02-28T00:02:46;3.25;;;1.30;;
63398;SDS011;49533;-34.520;150.798;2023-02-28T00:05:16;6.10;;;1.95;;
63398;SDS011;49533;-34.520;150.798;2023-02-28T00:07:46;5.10;;;1.58;;
63398;SDS011;49533;-34.520;150.798;2023-02-28T00:10:16;3.60;;;1.17;;
63398;SDS011;49533;-34.520;150.798;2023-02-28T00:12:47;5.20;;;1.38;;
63398;SDS011;49533;-34.520;150.798;2023-02-28T00:15:16;3.70;;;1.08;;
63398;SDS011;49533;-34.520;150.798;2023-02-28T00:17:44;4.43;;;1.10;;
63398;SDS011;49533;-34.520;150.798;2023-02-28T00:20:12;3.15;;;1.40;;
63398;SDS011;49533;-34.520;150.798;2023-02-28T00:22:41;4.32;;;1.35;;
63398;SDS011;49533;-34.520;150.798;2023-02-28T00:25:10;4.45;;;1.10;;
63398;SDS011;49533;-34.520;150.798;2023-02-28T00:27:39;1.77;;;0.75;;
63398;SDS011;49533;-34.520;150.798;2023-02-28T00:30:08;2.10;;;0.77;;
63398;SDS011;49533;-34.520;150.798;2023-02-28T00:32:37;5.32;;;1.00;;
63398;SDS011;49533;-34.520;150.798;2023-02-28T00:35:05;2.22;;;0.98;;
63398;SDS011;49533;-34.520;150.798;2023-02-28T00:37:33;3.45;;;1.20;;
63398;SDS011;49533;-34.520;150.798;2023-02-28T00:40:00;1.98;;;1.00;;
63398;SDS011;49533;-34.520;150.798;2023-02-28T00:42:30;5.10;;;1.05;;
63398;SDS011;49533;-34.520;150.798;2023-02-28T00:44:57;3.15;;;1.27;;
63398;SDS011;49533;-34.520;150.798;2023-02-28T00:47:25;3.10;;;1.10;;
63398;SDS011;49533;-34.520;150.798;2023-02-28T00:49:52;6.70;;;1.50;;
63398;SDS011;49533;-34.520;150.798;2023-02-28T00:52:19;3.53;;;1.10;;
63398;SDS011;49533;-34.520;150.798;2023-02-28T00:54:47;4.53;;;1.25;;
63398;SDS011;49533;-34.520;150.798;2023-02-28T00:57:14;1.42;;;1.02;;
63398;SDS011;49533;-34.520;150.798;2023-02-28T00:59:41;2.97;;;1.40;;
63398;SDS011;49533;-34.520;150.798;2023-02-28T01:02:08;3.53;;;1.15;;
63398;SDS011;49533;-34.520;150.798;2023-02-28T01:04:35;3.03;;;1.40;;
63398;SDS011;49533;-34.520;150.798;2023-02-28T01:07:02;4.40;;;1.02;;
63398;SDS011;49533;-34.520;150.798;2023-02-28T01:09:30;1.80;;;1.05;;
63398;SDS011;49533;-34.520;150.798;2023-02-28T01:11:57;3.63;;;1.05;;
63398;SDS011;49533;-34.520;150.798;2023-02-28T01:14:24;2.30;;;0.93;;
63398;SDS011;49533;-34.520;150.798;2023-02-28T01:16:51;3.78;;;0.90;;
63398;SDS011;49533;-34.520;150.798;2023-02-28T01:19:18;2.53;;;0.90;;
63398;SDS011;49533;-34.520;150.798;2023-02-28T01:21:46;2.42;;;0.90;;
63398;SDS011;49533;-34.520;150.798;2023-02-28T01:24:13;5.05;;;1.30;;
63398;SDS011;49533;-34.520;150.798;2023-02-28T01:26:40;2.97;;;0.98;;
63398;SDS011;49533;-34.520;150.798;2023-02-28T01:29:07;4.13;;;1.20;;
63398;SDS011;49533;-34.520;150.798;2023-02-28T01:31:34;4.82;;;1.33;;
63398;SDS011;49533;-34.520;150.798;2023-02-28T01:34:01;4.00;;;0.93;;
63398;SDS011;49533;-34.520;150.798;2023-02-28T01:36:29;3.67;;;1.05;;
63398;SDS011;49533;-34.520;150.798;2023-02-28T01:38:56;3.50;;;0.80;;
63398;SDS011;49533;-34.520;150.798;2023-02-28T01:41:25;2.97;;;0.85;;
63398;SDS011;49533;-34.520;150.798;2023-02-28T01:43:55;2.00;;;0.93;;
63398;SDS011;49533;-34.520;150.798;2023-02-28T01:46:24;2.15;;;0.98;;
63398;SDS011;49533;-34.520;150.798;2023-02-28T01:48:55;2.30;;;0.98;;
63398;SDS011;49533;-34.520;150.798;2023-02-28T01:51:40;3.38;;;0.90;;
63398;SDS011;49533;-34.520;150.798;2023-02-28T01:54:12;2.13;;;0.88;;
63398;SDS011;49533;-34.520;150.798;2023-02-28T01:56:46;3.03;;;0.93;;
63398;SDS011;49533;-34.520;150.798;2023-02-28T01:59:24;3.38;;;1.08;;
63398;SDS011;49533;-34.520;150.798;2023-02-28T02:02:03;3.92;;;1.00;;
63398;SDS011;49533;-34.520;150.798;2023-02-28T02:04:32;3.28;;;1.02;;
63398;SDS011;49533;-34.520;150.798;2023-02-28T02:07:05;4.22;;;1.30;;
63398;SDS011;49533;-34.520;150.798;2023-02-28T02:09:33;3.33;;;1.25;;
63398;SDS011;49533;-34.520;150.798;2023-02-28T02:12:01;2.60;;;1.30;;
63398;SDS011;49533;-34.520;150.798;2023-02-28T02:14:57;3.88;;;1.00;;
63398;SDS011;49533;-34.520;150.798;2023-02-28T02:17:48;4.05;;;1.30;;
63398;SDS011;49533;-34.520;150.798;2023-02-28T02:20:27;3.28;;;1.27;;
63398;SDS011;49533;-34.520;150.798;2023-02-28T02:23:21;4.63;;;0.85;;
63398;SDS011;49533;-34.520;150.798;2023-02-28T02:29:23;3.47;;;1.10;;
63398;SDS011;49533;-34.520;150.798;2023-02-28T02:34:49;2.65;;;1.13;;
63398;SDS011;49533;-34.520;150.798;2023-02-28T02:37:36;3.88;;;1.30;;
63398;SDS011;49533;-34.520;150.798;2023-02-28T02:40:18;3.22;;;1.52;;
63398;SDS011;49533;-34.520;150.798;2023-02-28T02:43:06;4.70;;;1.60;;
63398;SDS011;49533;-34.520;150.798;2023-02-28T02:45:45;5.55;;;1.45;;
63398;SDS011;49533;-34.520;150.798;2023-02-28T02:48:16;4.43;;;1.40;;
63398;SDS011;49533;-34.520;150.798;2023-02-28T02:50:48;3.92;;;1.17;;
63398;SDS011;49533;-34.520;150.798;2023-02-28T02:53:21;6.22;;;1.60;;
63398;SDS011;49533;-34.520;150.798;2023-02-28T02:55:52;3.28;;;1.25;;
63398;SDS011;49533;-34.520;150.798;2023-02-28T02:58:22;4.32;;;1.10;;
63398;SDS011;49533;-34.520;150.798;2023-02-28T03:00:54;4.93;;;1.50;;
63398;SDS011;49533;-34.520;150.798;2023-02-28T03:03:26;2.33;;;1.15;;
63398;SDS011;49533;-34.520;150.798;2023-02-28T03:05:56;4.70;;;1.33;;
63398;SDS011;49533;-34.520;150.798;2023-02-28T03:08:25;3.78;;;1.20;;
63398;SDS011;49533;-34.520;150.798;2023-02-28T03:10:57;4.60;;;1.15;;
63398;SDS011;49533;-34.520;150.798;2023-02-28T03:16:18;3.67;;;1.52;;
63398;SDS011;49533;-34.520;150.798;2023-02-28T03:19:00;4.15;;;1.38;;
63398;SDS011;49533;-34.520;150.798;2023-02-28T03:21:44;3.78;;;1.65;;
63398;SDS011;49533;-34.520;150.798;2023-02-28T03:24:37;6.47;;;1.30;;
63398;SDS011;49533;-34.520;150.798;2023-02-28T03:27:21;2.28;;;1.10;;
63398;SDS011;49533;-34.520;150.798;2023-02-28T03:30:05;7.30;;;1.95;;
63398;SDS011;49533;-34.520;150.798;2023-02-28T03:32:41;3.20;;;1.13;;
63398;SDS011;49533;-34.520;150.798;2023-02-28T03:35:20;4.25;;;1.88;;
63398;SDS011;49533;-34.520;150.798;2023-02-28T03:37:58;5.03;;;1.70;;
63398;SDS011;49533;-34.520;150.798;2023-02-28T03:40:33;2.38;;;1.30;;
63398;SDS011;49533;-34.520;150.798;2023-02-28T03:43:07;5.03;;;1.63;;
63398;SDS011;49533;-34.520;150.798;2023-02-28T03:45:41;4.35;;;1.40;;
63398;SDS011;49533;-34.520;150.798;2023-02-28T03:48:13;4.70;;;1.85;;
63398;SDS011;49533;-34.520;150.798;2023-02-28T03:50:45;5.68;;;1.77;;
63398;SDS011;49533;-34.520;150.798;2023-02-28T03:53:17;3.53;;;1.60;;
63398;SDS011;49533;-34.520;150.798;2023-02-28T03:55:59;6.32;;;1.90;;
63398;SDS011;49533;-34.520;150.798;2023-02-28T03:58:39;5.90;;;1.85;;
63398;SDS011;49533;-34.520;150.798;2023-02-28T04:01:16;4.22;;;2.00;;
63398;SDS011;49533;-34.520;150.798;2023-02-28T04:03:57;3.88;;;1.63;;
63398;SDS011;49533;-34.520;150.798;2023-02-28T04:06:24;3.90;;;1.70;;
63398;SDS011;49533;-34.520;150.798;2023-02-28T04:08:52;3.80;;;1.65;;
63398;SDS011;49533;-34.520;150.798;2023-02-28T04:11:21;5.13;;;2.13;;
63398;SDS011;49533;-34.520;150.798;2023-02-28T04:13:54;8.10;;;2.05;;
63398;SDS011;49533;-34.520;150.798;2023-02-28T04:16:21;5.32;;;1.73;;
63398;SDS011;49533;-34.520;150.798;2023-02-28T04:18:48;2.40;;;1.40;;
63398;SDS011;49533;-34.520;150.798;2023-02-28T04:21:18;2.55;;;1.15;;
63398;SDS011;49533;-34.520;150.798;2023-02-28T04:23:46;5.05;;;2.15;;
63398;SDS011;49533;-34.520;150.798;2023-02-28T04:26:13;3.75;;;1.58;;
63398;SDS011;49533;-34.520;150.798;2023-02-28T04:28:40;6.05;;;1.27;;
63398;SDS011;49533;-34.520;150.798;2023-02-28T04:31:08;7.25;;;2.15;;
63398;SDS011;49533;-34.520;150.798;2023-02-28T04:33:36;2.95;;;1.73;;
63398;SDS011;49533;-34.520;150.798;2023-02-28T04:36:04;4.22;;;2.08;;
63398;SDS011;49533;-34.520;150.798;2023-02-28T04:38:34;2.85;;;1.70;;
63398;SDS011;49533;-34.520;150.798;2023-02-28T04:41:03;4.30;;;1.95;;
63398;SDS011;49533;-34.520;150.798;2023-02-28T04:43:31;4.80;;;1.75;;
63398;SDS011;49533;-34.520;150.798;2023-02-28T04:46:00;3.72;;;1.48;;
63398;SDS011;49533;-34.520;150.798;2023-02-28T04:48:29;3.00;;;1.40;;
63398;SDS011;49533;-34.520;150.798;2023-02-28T04:51:00;2.55;;;1.40;;
63398;SDS011;49533;-34.520;150.798;2023-02-28T04:53:28;3.30;;;1.77;;
63398;SDS011;49533;-34.520;150.798;2023-02-28T04:55:56;5.03;;;1.70;;
63398;SDS011;49533;-34.520;150.798;2023-02-28T04:58:24;3.95;;;1.15;;
63398;SDS011;49533;-34.520;150.798;2023-02-28T05:00:52;3.53;;;1.20;;
63398;SDS011;49533;-34.520;150.798;2023-02-28T05:03:20;6.28;;;1.38;;
63398;SDS011;49533;-34.520;150.798;2023-02-28T05:05:48;2.80;;;1.15;;
63398;SDS011;49533;-34.520;150.798;2023-02-28T05:08:15;3.17;;;1.13;;
63398;SDS011;49533;-34.520;150.798;2023-02-28T05:10:42;3.08;;;1.30;;
63398;SDS011;49533;-34.520;150.798;2023-02-28T05:13:11;2.15;;;1.15;;
63398;SDS011;49533;-34.520;150.798;2023-02-28T05:15:39;2.40;;;1.10;;
63398;SDS011;49533;-34.520;150.798;2023-02-28T05:18:07;7.18;;;1.55;;
63398;SDS011;49533;-34.520;150.798;2023-02-28T05:20:35;3.25;;;1.45;;
63398;SDS011;49533;-34.520;150.798;2023-02-28T05:23:03;3.70;;;1.55;;
63398;SDS011;49533;-34.520;150.798;2023-02-28T05:25:30;2.15;;;1.00;;
63398;SDS011;49533;-34.520;150.798;2023-02-28T05:27:57;4.15;;;1.67;;
63398;SDS011;49533;-34.520;150.798;2023-02-28T05:30:25;4.53;;;1.70;;
63398;SDS011;49533;-34.520;150.798;2023-02-28T05:32:52;4.78;;;1.10;;
63398;SDS011;49533;-34.520;150.798;2023-02-28T05:35:19;4.35;;;1.33;;
63398;SDS011;49533;-34.520;150.798;2023-02-28T05:37:46;4.45;;;1.50;;
63398;SDS011;49533;-34.520;150.798;2023-02-28T05:40:13;4.65;;;1.60;;
63398;SDS011;49533;-34.520;150.798;2023-02-28T05:42:41;3.70;;;1.38;;
63398;SDS011;49533;-34.520;150.798;2023-02-28T05:45:08;5.13;;;1.35;;
63398;SDS011;49533;-34.520;150.798;2023-02-28T05:47:36;5.03;;;1.70;;
63398;SDS011;49533;-34.520;150.798;2023-02-28T05:50:03;3.22;;;1.40;;
63398;SDS011;49533;-34.520;150.798;2023-02-28T05:52:31;2.38;;;1.33;;
63398;SDS011;49533;-34.520;150.798;2023-02-28T05:54:59;3.20;;;1.35;;
63398;SDS011;49533;-34.520;150.798;2023-02-28T05:57:26;3.58;;;1.40;;
63398;SDS011;49533;-34.520;150.798;2023-02-28T05:59:53;2.05;;;1.23;;
63398;SDS011;49533;-34.520;150.798;2023-02-28T06:02:20;2.13;;;0.90;;
63398;SDS011;49533;-34.520;150.798;2023-02-28T06:04:47;3.25;;;1.25;;
63398;SDS011;49533;-34.520;150.798;2023-02-28T06:07:14;5.35;;;1.05;;
63398;SDS011;49533;-34.520;150.798;2023-02-28T06:09:43;3.42;;;1.30;;
63398;SDS011;49533;-34.520;150.798;2023-02-28T06:12:10;2.42;;;1.45;;
63398;SDS011;49533;-34.520;150.798;2023-02-28T06:14:37;2.92;;;1.35;;
63398;SDS011;49533;-34.520;150.798;2023-02-28T06:17:05;2.00;;;1.10;;
63398;SDS011;49533;-34.520;150.798;2023-02-28T06:19:32;3.63;;;1.73;;
63398;SDS011;49533;-34.520;150.798;2023-02-28T06:21:59;4.68;;;1.50;;
63398;SDS011;49533;-34.520;150.798;2023-02-28T06:24:26;3.00;;;1.13;;
63398;SDS011;49533;-34.520;150.798;2023-02-28T06:26:53;3.72;;;1.17;;
63398;SDS011;49533;-34.520;150.798;2023-02-28T06:29:21;2.65;;;0.98;;
63398;SDS011;49533;-34.520;150.798;2023-02-28T06:31:48;5.07;;;1.65;;
63398;SDS011;49533;-34.520;150.798;2023-02-28T06:34:16;3.33;;;1.80;;
63398;SDS011;49533;-34.520;150.798;2023-02-28T06:36:43;3.53;;;1.60;;
63398;SDS011;49533;-34.520;150.798;2023-02-28T06:39:10;4.05;;;1.35;;
63398;SDS011;49533;-34.520;150.798;2023-02-28T06:41:37;2.92;;;1.35;;
63398;SDS011;49533;-34.520;150.798;2023-02-28T06:44:08;3.70;;;1.55;;
63398;SDS011;49533;-34.520;150.798;2023-02-28T06:46:40;2.72;;;1.17;;
63398;SDS011;49533;-34.520;150.798;2023-02-28T06:49:09;3.88;;;1.55;;
63398;SDS011;49533;-34.520;150.798;2023-02-28T06:51:38;5.25;;;1.55;;
63398;SDS011;49533;-34.520;150.798;2023-02-28T06:54:07;2.78;;;0.88;;
63398;SDS011;49533;-34.520;150.798;2023-02-28T06:56:34;2.83;;;1.27;;
63398;SDS011;49533;-34.520;150.798;2023-02-28T06:59:02;5.57;;;1.63;;
63398;SDS011;49533;-34.520;150.798;2023-02-28T07:01:30;5.72;;;1.23;;
63398;SDS011;49533;-34.520;150.798;2023-02-28T07:03:58;3.83;;;1.15;;
63398;SDS011;49533;-34.520;150.798;2023-02-28T07:06:26;3.55;;;1.25;;
63398;SDS011;49533;-34.520;150.798;2023-02-28T07:08:53;2.55;;;1.45;;
63398;SDS011;49533;-34.520;150.798;2023-02-28T07:11:21;3.65;;;1.40;;
63398;SDS011;49533;-34.520;150.798;2023-02-28T07:13:51;3.15;;;1.23;;
63398;SDS011;49533;-34.520;150.798;2023-02-28T07:16:19;4.35;;;1.08;;
63398;SDS011;49533;-34.520;150.798;2023-02-28T07:18:48;3.25;;;1.17;;
63398;SDS011;49533;-34.520;150.798;2023-02-28T07:21:15;3.70;;;1.27;;
63398;SDS011;49533;-34.520;150.798;2023-02-28T07:23:42;4.05;;;1.40;;
63398;SDS011;49533;-34.520;150.798;2023-02-28T07:26:11;2.75;;;1.10;;
63398;SDS011;49533;-34.520;150.798;2023-02-28T07:28:41;2.60;;;1.10;;
63398;SDS011;49533;-34.520;150.798;2023-02-28T07:31:09;3.40;;;1.23;;
63398;SDS011;49533;-34.520;150.798;2023-02-28T07:33:39;5.88;;;1.33;;
63398;SDS011;49533;-34.520;150.798;2023-02-28T07:36:08;6.35;;;1.30;;
63398;SDS011;49533;-34.520;150.798;2023-02-28T07:38:42;4.50;;;1.23;;
63398;SDS011;49533;-34.520;150.798;2023-02-28T07:41:10;3.38;;;1.58;;
63398;SDS011;49533;-34.520;150.798;2023-02-28T07:43:38;3.15;;;1.10;;
63398;SDS011;49533;-34.520;150.798;2023-02-28T07:46:06;2.53;;;1.15;;
63398;SDS011;49533;-34.520;150.798;2023-02-28T07:48:35;4.55;;;1.17;;
63398;SDS011;49533;-34.520;150.798;2023-02-28T07:51:03;5.43;;;0.75;;
63398;SDS011;49533;-34.520;150.798;2023-02-28T07:53:30;6.53;;;1.73;;
63398;SDS011;49533;-34.520;150.798;2023-02-28T07:55:58;5.18;;;1.20;;
63398;SDS011;49533;-34.520;150.798;2023-02-28T07:58:26;5.60;;;1.23;;
63398;SDS011;49533;-34.520;150.798;2023-02-28T08:00:55;4.28;;;0.98;;
63398;SDS011;49533;-34.520;150.798;2023-02-28T08:03:23;3.00;;;1.23;;
63398;SDS011;49533;-34.520;150.798;2023-02-28T08:08:50;4.72;;;1.17;;
63398;SDS011;49533;-34.520;150.798;2023-02-28T08:11:19;6.15;;;1.45;;
63398;SDS011;49533;-34.520;150.798;2023-02-28T08:13:46;4.22;;;0.93;;
63398;SDS011;49533;-34.520;150.798;2023-02-28T08:16:13;4.57;;;1.10;;
63398;SDS011;49533;-34.520;150.798;2023-02-28T08:18:43;4.20;;;0.93;;
63398;SDS011;49533;-34.520;150.798;2023-02-28T08:21:11;4.57;;;0.93;;
63398;SDS011;49533;-34.520;150.798;2023-02-28T08:23:38;4.43;;;0.93;;
63398;SDS011;49533;-34.520;150.798;2023-02-28T08:26:05;5.43;;;1.23;;
63398;SDS011;49533;-34.520;150.798;2023-02-28T08:28:33;7.57;;;1.63;;
63398;SDS011;49533;-34.520;150.798;2023-02-28T08:31:00;4.32;;;1.42;;
63398;SDS011;49533;-34.520;150.798;2023-02-28T08:33:33;7.93;;;1.50;;
63398;SDS011;49533;-34.520;150.798;2023-02-28T08:36:00;5.75;;;1.83;;
63398;SDS011;49533;-34.520;150.798;2023-02-28T08:38:27;4.32;;;1.50;;
63398;SDS011;49533;-34.520;150.798;2023-02-28T08:40:58;4.20;;;1.52;;
63398;SDS011;49533;-34.520;150.798;2023-02-28T08:43:27;6.95;;;1.63;;
63398;SDS011;49533;-34.520;150.798;2023-02-28T08:45:55;5.88;;;1.15;;
63398;SDS011;49533;-34.520;150.798;2023-02-28T08:48:23;4.53;;;1.27;;
63398;SDS011;49533;-34.520;150.798;2023-02-28T08:50:55;6.82;;;1.90;;
63398;SDS011;49533;-34.520;150.798;2023-02-28T08:53:24;6.03;;;1.40;;
63398;SDS011;49533;-34.520;150.798;2023-02-28T08:55:56;6.57;;;1.20;;
63398;SDS011;49533;-34.520;150.798;2023-02-28T09:00:51;4.15;;;1.38;;
63398;SDS011;49533;-34.520;150.798;2023-02-28T09:03:19;4.43;;;1.17;;
63398;SDS011;49533;-34.520;150.798;2023-02-28T09:05:54;5.50;;;1.50;;
63398;SDS011;49533;-34.520;150.798;2023-02-28T09:08:23;3.58;;;1.38;;
63398;SDS011;49533;-34.520;150.798;2023-02-28T09:10:51;4.50;;;1.20;;
63398;SDS011;49533;-34.520;150.798;2023-02-28T09:13:19;8.75;;;1.77;;
63398;SDS011;49533;-34.520;150.798;2023-02-28T09:15:47;4.07;;;1.50;;
63398;SDS011;49533;-34.520;150.798;2023-02-28T09:18:14;5.75;;;1.58;;
63398;SDS011;49533;-34.520;150.798;2023-02-28T09:20:42;4.93;;;1.30;;
63398;SDS011;49533;-34.520;150.798;2023-02-28T09:23:09;6.07;;;1.20;;
63398;SDS011;49533;-34.520;150.798;2023-02-28T09:25:38;5.32;;;1.20;;
63398;SDS011;49533;-34.520;150.798;2023-02-28T09:28:16;9.93;;;2.47;;
63398;SDS011;49533;-34.520;150.798;2023-02-28T09:30:44;5.65;;;1.50;;
63398;SDS011;49533;-34.520;150.798;2023-02-28T09:33:13;2.63;;;1.52;;
63398;SDS011;49533;-34.520;150.798;2023-02-28T09:35:42;5.55;;;1.30;;
63398;SDS011;49533;-34.520;150.798;2023-02-28T09:38:09;7.07;;;1.80;;
63398;SDS011;49533;-34.520;150.798;2023-02-28T09:40:38;7.47;;;1.98;;
63398;SDS011;49533;-34.520;150.798;2023-02-28T09:43:14;5.22;;;1.85;;
63398;SDS011;49533;-34.520;150.798;2023-02-28T09:45:46;4.60;;;1.20;;
63398;SDS011;49533;-34.520;150.798;2023-02-28T09:48:28;3.75;;;1.30;;
63398;SDS011;49533;-34.520;150.798;2023-02-28T09:51:03;5.25;;;1.35;;
63398;SDS011;49533;-34.520;150.798;2023-02-28T09:53:37;4.25;;;1.15;;
63398;SDS011;49533;-34.520;150.798;2023-02-28T09:56:09;6.10;;;1.70;;
63398;SDS011;49533;-34.520;150.798;2023-02-28T09:58:46;3.08;;;1.30;;
63398;SDS011;49533;-34.520;150.798;2023-02-28T10:01:21;5.72;;;1.15;;
63398;SDS011;49533;-34.520;150.798;2023-02-28T10:03:56;5.18;;;1.80;;
63398;SDS011;49533;-34.520;150.798;2023-02-28T10:06:37;4.82;;;1.17;;
63398;SDS011;49533;-34.520;150.798;2023-02-28T10:09:12;5.80;;;1.75;;
63398;SDS011;49533;-34.520;150.798;2023-02-28T10:11:46;5.03;;;1.60;;
63398;SDS011;49533;-34.520;150.798;2023-02-28T10:14:15;3.33;;;1.20;;
63398;SDS011;49533;-34.520;150.798;2023-02-28T10:16:50;5.55;;;1.52;;
63398;SDS011;49533;-34.520;150.798;2023-02-28T10:19:25;6.45;;;1.50;;
63398;SDS011;49533;-34.520;150.798;2023-02-28T10:21:59;2.45;;;1.20;;
63398;SDS011;49533;-34.520;150.798;2023-02-28T10:24:35;4.03;;;1.23;;
63398;SDS011;49533;-34.520;150.798;2023-02-28T10:27:15;3.78;;;1.63;;
63398;SDS011;49533;-34.520;150.798;2023-02-28T10:29:51;4.47;;;1.40;;
63398;SDS011;49533;-34.520;150.798;2023-02-28T10:32:21;3.08;;;1.00;;
63398;SDS011;49533;-34.520;150.798;2023-02-28T10:37:24;3.20;;;1.40;;
63398;SDS011;49533;-34.520;150.798;2023-02-28T10:39:51;4.22;;;1.50;;
63398;SDS011;49533;-34.520;150.798;2023-02-28T10:42:20;2.90;;;0.77;;
63398;SDS011;49533;-34.520;150.798;2023-02-28T10:47:33;4.43;;;1.05;;
63398;SDS011;49533;-34.520;150.798;2023-02-28T10:50:02;3.08;;;1.05;;
63398;SDS011;49533;-34.520;150.798;2023-02-28T10:52:33;1.70;;;0.85;;
63398;SDS011;49533;-34.520;150.798;2023-02-28T10:55:19;1.85;;;0.85;;
63398;SDS011;49533;-34.520;150.798;2023-02-28T10:57:49;3.75;;;1.42;;
63398;SDS011;49533;-34.520;150.798;2023-02-28T11:00:18;2.90;;;1.08;;
63398;SDS011;49533;-34.520;150.798;2023-02-28T11:02:47;4.72;;;1.45;;
63398;SDS011;49533;-34.520;150.798;2023-02-28T11:08:10;3.88;;;1.00;;
63398;SDS011;49533;-34.520;150.798;2023-02-28T11:10:44;5.72;;;1.55;;
63398;SDS011;49533;-34.520;150.798;2023-02-28T11:13:17;2.13;;;1.00;;
63398;SDS011;49533;-34.520;150.798;2023-02-28T11:15:55;3.65;;;1.30;;
63398;SDS011;49533;-34.520;150.798;2023-02-28T11:18:28;2.35;;;0.95;;
63398;SDS011;49533;-34.520;150.798;2023-02-28T11:21:03;3.13;;;1.30;;
63398;SDS011;49533;-34.520;150.798;2023-02-28T11:23:32;3.33;;;1.38;;
63398;SDS011;49533;-34.520;150.798;2023-02-28T11:26:03;1.83;;;1.10;;
63398;SDS011;49533;-34.520;150.798;2023-02-28T11:28:33;3.35;;;1.25;;
63398;SDS011;49533;-34.520;150.798;2023-02-28T11:31:06;3.78;;;1.50;;
63398;SDS011;49533;-34.520;150.798;2023-02-28T11:33:49;1.92;;;0.98;;
63398;SDS011;49533;-34.520;150.798;2023-02-28T11:36:21;2.40;;;1.08;;
63398;SDS011;49533;-34.520;150.798;2023-02-28T11:38:54;2.70;;;1.15;;
63398;SDS011;49533;-34.520;150.798;2023-02-28T11:41:31;2.75;;;1.08;;
63398;SDS011;49533;-34.520;150.798;2023-02-28T11:47:04;1.90;;;1.08;;
63398;SDS011;49533;-34.520;150.798;2023-02-28T11:49:45;4.30;;;0.90;;
63398;SDS011;49533;-34.520;150.798;2023-02-28T11:52:34;3.20;;;1.00;;
63398;SDS011;49533;-34.520;150.798;2023-02-28T11:55:24;3.07;;;1.10;;
63398;SDS011;49533;-34.520;150.798;2023-02-28T11:58:01;2.22;;;1.10;;
63398;SDS011;49533;-34.520;150.798;2023-02-28T12:00:54;1.73;;;0.98;;
63398;SDS011;49533;-34.520;150.798;2023-02-28T12:03:38;4.38;;;1.42;;
63398;SDS011;49533;-34.520;150.798;2023-02-28T12:06:33;2.92;;;1.02;;
63398;SDS011;49533;-34.520;150.798;2023-02-28T12:09:13;3.38;;;1.02;;
63398;SDS011;49533;-34.520;150.798;2023-02-28T12:12:21;2.25;;;1.33;;
63398;SDS011;49533;-34.520;150.798;2023-02-28T12:15:17;2.13;;;1.20;;
63398;SDS011;49533;-34.520;150.798;2023-02-28T12:17:58;2.15;;;1.20;;
63398;SDS011;49533;-34.520;150.798;2023-02-28T12:20:44;2.45;;;0.95;;
63398;SDS011;49533;-34.520;150.798;2023-02-28T12:23:37;3.83;;;1.38;;
63398;SDS011;49533;-34.520;150.798;2023-02-28T12:26:24;4.30;;;1.63;;
63398;SDS011;49533;-34.520;150.798;2023-02-28T12:29:09;3.45;;;1.42;;
63398;SDS011;49533;-34.520;150.798;2023-02-28T12:32:04;2.35;;;1.40;;
63398;SDS011;49533;-34.520;150.798;2023-02-28T12:34:42;2.72;;;1.30;;
63398;SDS011;49533;-34.520;150.798;2023-02-28T12:37:16;2.70;;;1.30;;
63398;SDS011;49533;-34.520;150.798;2023-02-28T12:39:50;1.98;;;0.90;;
63398;SDS011;49533;-34.520;150.798;2023-02-28T12:42:24;2.28;;;1.20;;
63398;SDS011;49533;-34.520;150.798;2023-02-28T12:44:58;4.47;;;1.58;;
63398;SDS011;49533;-34.520;150.798;2023-02-28T12:47:32;4.32;;;1.20;;
63398;SDS011;49533;-34.520;150.798;2023-02-28T12:50:02;3.95;;;1.55;;
63398;SDS011;49533;-34.520;150.798;2023-02-28T12:55:35;3.45;;;1.20;;
63398;SDS011;49533;-34.520;150.798;2023-02-28T12:58:15;2.05;;;1.10;;
63398;SDS011;49533;-34.520;150.798;2023-02-28T13:04:10;2.45;;;1.42;;
63398;SDS011;49533;-34.520;150.798;2023-02-28T13:07:00;1.67;;;1.30;;
63398;SDS011;49533;-34.520;150.798;2023-02-28T13:09:51;3.28;;;1.42;;
63398;SDS011;49533;-34.520;150.798;2023-02-28T13:12:20;4.95;;;1.42;;
63398;SDS011;49533;-34.520;150.798;2023-02-28T13:14:48;2.10;;;1.23;;
63398;SDS011;49533;-34.520;150.798;2023-02-28T13:17:19;3.22;;;1.52;;
63398;SDS011;49533;-34.520;150.798;2023-02-28T13:19:58;2.38;;;1.33;;
63398;SDS011;49533;-34.520;150.798;2023-02-28T13:22:40;3.47;;;1.35;;
63398;SDS011;49533;-34.520;150.798;2023-02-28T13:25:49;3.00;;;1.20;;
63398;SDS011;49533;-34.520;150.798;2023-02-28T13:28:56;2.30;;;1.50;;
63398;SDS011;49533;-34.520;150.798;2023-02-28T13:31:15;4.50;;;1.52;;
63398;SDS011;49533;-34.520;150.798;2023-02-28T13:36:32;2.22;;;1.40;;
63398;SDS011;49533;-34.520;150.798;2023-02-28T13:39:00;2.35;;;1.17;;
63398;SDS011;49533;-34.520;150.798;2023-02-28T13:44:19;1.85;;;1.13;;
63398;SDS011;49533;-34.520;150.798;2023-02-28T13:49:46;2.40;;;1.38;;
63398;SDS011;49533;-34.520;150.798;2023-02-28T13:52:16;3.10;;;1.48;;
63398;SDS011;49533;-34.520;150.798;2023-02-28T13:54:52;2.92;;;1.52;;
63398;SDS011;49533;-34.520;150.798;2023-02-28T13:57:46;2.42;;;1.50;;
63398;SDS011;49533;-34.520;150.798;2023-02-28T14:00:42;2.38;;;1.20;;
63398;SDS011;49533;-34.520;150.798;2023-02-28T14:03:40;2.67;;;1.65;;
63398;SDS011;49533;-34.520;150.798;2023-02-28T14:06:28;3.67;;;1.80;;
63398;SDS011;49533;-34.520;150.798;2023-02-28T14:08:59;3.25;;;1.50;;
63398;SDS011;49533;-34.520;150.798;2023-02-28T14:11:36;2.17;;;1.33;;
63398;SDS011;49533;-34.520;150.798;2023-02-28T14:14:06;3.45;;;1.92;;
63398;SDS011;49533;-34.520;150.798;2023-02-28T14:16:37;3.20;;;1.63;;
63398;SDS011;49533;-34.520;150.798;2023-02-28T14:19:11;1.85;;;1.25;;
63398;SDS011;49533;-34.520;150.798;2023-02-28T14:24:59;2.05;;;1.00;;
63398;SDS011;49533;-34.520;150.798;2023-02-28T14:27:58;4.07;;;1.95;;
63398;SDS011;49533;-34.520;150.798;2023-02-28T14:30:56;5.20;;;2.63;;
63398;SDS011;49533;-34.520;150.798;2023-02-28T14:33:39;2.80;;;1.77;;
63398;SDS011;49533;-34.520;150.798;2023-02-28T14:36:33;4.70;;;2.60;;
63398;SDS011;49533;-34.520;150.798;2023-02-28T14:39:07;5.88;;;3.00;;
63398;SDS011;49533;-34.520;150.798;2023-02-28T14:41:41;5.15;;;1.92;;
63398;SDS011;49533;-34.520;150.798;2023-02-28T14:44:14;3.97;;;2.28;;
63398;SDS011;49533;-34.520;150.798;2023-02-28T14:49:13;3.53;;;2.40;;
63398;SDS011;49533;-34.520;150.798;2023-02-28T14:51:47;3.20;;;2.65;;
63398;SDS011;49533;-34.520;150.798;2023-02-28T14:54:18;4.40;;;2.75;;
63398;SDS011;49533;-34.520;150.798;2023-02-28T14:56:50;3.67;;;2.45;;
63398;SDS011;49533;-34.520;150.798;2023-02-28T14:59:25;4.05;;;2.67;;
63398;SDS011;49533;-34.520;150.798;2023-02-28T15:04:52;4.43;;;3.00;;
63398;SDS011;49533;-34.520;150.798;2023-02-28T15:07:20;5.55;;;3.30;;
63398;SDS011;49533;-34.520;150.798;2023-02-28T15:12:36;4.60;;;3.33;;
63398;SDS011;49533;-34.520;150.798;2023-02-28T15:15:05;4.07;;;3.60;;
63398;SDS011;49533;-34.520;150.798;2023-02-28T15:17:40;5.05;;;3.08;;
63398;SDS011;49533;-34.520;150.798;2023-02-28T15:20:12;5.68;;;3.55;;
63398;SDS011;49533;-34.520;150.798;2023-02-28T15:22:41;4.00;;;2.97;;
63398;SDS011;49533;-34.520;150.798;2023-02-28T15:25:11;4.68;;;3.72;;
63398;SDS011;49533;-34.520;150.798;2023-02-28T15:27:45;4.47;;;3.63;;
63398;SDS011;49533;-34.520;150.798;2023-02-28T15:30:18;6.40;;;3.80;;